Time;durP1;ratioP1;P1;durP2;ratioP2;P2;SDS_P1;SDS_P2;PMS_P1;PMS_P2;Temp;Humidity;BMP_temperature;BMP_pressure;BME280_temperature;BME280_humidity;BME280_pressure;Samples;Min_cycle;Max_cycle;Signal;HPM_P1;HPM_P2
2024/04/15 00:01:18;;;;;;;3.88;2.10;;;;;;;16.86;53.51;98741.84;5451214;26;19999;-62
2024/04/15 00:03:45;;;;;;;5.38;2.60;;;;;;;16.86;53.39;98728.06;5451567;26;20013;-62
2024/04/15 00:06:12;;;;;;;5.80;2.17;;;;;;;16.82;53.85;98718.22;5434548;26;20461;-62
2024/04/15 00:08:38;;;;;;;3.45;2.28;;;;;;;16.83;53.34;98715.06;5451423;26;20071;-63
2024/04/15 00:11:05;;;;;;;3.22;2.50;;;;;;;16.87;53.57;98718.63;5451259;26;20443;-62
2024/04/15 00:13:32;;;;;;;4.13;2.70;;;;;;;16.86;53.29;98708.78;5451363;26;20068;-62
2024/04/15 00:15:59;;;;;;;4.00;2.63;;;;;;;16.82;53.82;98696.97;5451346;26;20459;-62
2024/04/15 00:18:25;;;;;;;3.78;2.30;;;;;;;16.77;53.35;98688.28;5449261;26;20018;-63
2024/04/15 00:20:58;;;;;;;3.50;2.10;;;;;;;16.72;53.77;98683.13;5450787;26;20002;-62
2024/04/15 00:23:26;;;;;;;4.95;2.58;;;;;;;16.67;53.93;98678.78;5450866;26;20340;-62
2024/04/15 00:25:55;;;;;;;2.95;2.25;;;;;;;16.58;53.70;98686.59;5450521;26;20386;-62
2024/04/15 00:28:22;;;;;;;4.00;2.50;;;;;;;16.56;53.71;98692.47;5450864;26;19995;-62
2024/04/15 00:30:49;;;;;;;3.75;2.42;;;;;;;16.54;53.72;98675.53;5450513;26;20003;-62
2024/04/15 00:33:17;;;;;;;4.45;2.20;;;;;;;16.51;53.85;98670.00;5450725;26;19995;-62
2024/04/15 00:35:45;;;;;;;4.28;2.25;;;;;;;16.45;53.62;98685.31;5437181;26;20019;-62
2024/04/15 00:38:13;;;;;;;4.30;2.75;;;;;;;16.31;53.62;98674.97;5449820;26;20323;-62
2024/04/15 00:40:40;;;;;;;4.10;3.35;;;;;;;16.23;53.66;98657.66;5450121;26;20455;-63
2024/04/15 00:43:07;;;;;;;5.25;2.78;;;;;;;16.21;53.72;98643.47;5450771;26;20010;-62
2024/04/15 00:45:35;;;;;;;4.38;2.88;;;;;;;16.28;53.31;98643.53;5450557;26;20007;-62
2024/04/15 00:48:04;;;;;;;6.07;3.53;;;;;;;16.35;52.99;98634.50;5450399;26;20337;-63
2024/04/15 00:50:34;;;;;;;4.88;3.20;;;;;;;16.33;52.62;98626.63;5448350;26;20335;-62
2024/04/15 00:53:02;;;;;;;6.22;3.05;;;;;;;16.28;52.36;98616.00;5450313;26;20317;-62
2024/04/15 00:55:32;;;;;;;5.80;3.10;;;;;;;16.27;52.67;98614.44;5450385;26;20002;-62
2024/04/15 00:58:01;;;;;;;3.75;3.30;;;;;;;16.31;52.25;98612.47;5448410;26;20068;-62
2024/04/15 01:00:29;;;;;;;7.32;2.95;;;;;;;16.40;52.33;98616.88;5449804;26;20003;-62
2024/04/15 01:02:57;;;;;;;6.90;3.03;;;;;;;16.39;52.19;98621.59;5452930;26;20428;-62
2024/04/15 01:05:24;;;;;;;7.07;3.30;;;;;;;16.38;52.35;98621.97;5420286;26;20011;-63
2024/04/15 01:07:51;;;;;;;7.45;3.28;;;;;;;16.39;52.65;98615.28;5447757;26;20327;-63
2024/04/15 01:10:18;;;;;;;4.10;3.08;;;;;;;16.35;52.68;98610.53;5453399;26;20014;-62
2024/04/15 01:12:45;;;;;;;7.78;3.00;;;;;;;16.25;53.13;98608.53;5452044;26;20011;-63
2024/04/15 01:15:11;;;;;;;8.55;3.33;;;;;;;16.21;53.93;98602.22;5451943;26;20003;-62
2024/04/15 01:17:38;;;;;;;6.28;2.95;;;;;;;16.28;53.81;98606.97;5453410;26;20010;-62
2024/04/15 01:20:05;;;;;;;5.78;2.97;;;;;;;16.35;53.83;98607.00;5453789;26;20075;-62
2024/04/15 01:22:36;;;;;;;3.03;2.70;;;;;;;16.37;53.59;98617.63;5453416;26;19998;-62
2024/04/15 01:25:03;;;;;;;5.60;2.80;;;;;;;16.33;53.58;98618.38;5453770;26;20379;-62
2024/04/15 01:27:30;;;;;;;5.60;2.67;;;;;;;16.30;53.72;98610.13;5451615;26;20007;-62
2024/04/15 01:29:57;;;;;;;6.05;2.65;;;;;;;16.27;54.01;98610.88;5453374;26;20127;-63
2024/04/15 01:32:23;;;;;;;3.78;2.70;;;;;;;16.22;54.46;98614.00;5453459;26;19995;-62
2024/04/15 01:34:50;;;;;;;3.38;2.50;;;;;;;16.23;54.38;98613.63;5453581;26;20335;-62
2024/04/15 01:37:17;;;;;;;5.00;3.10;;;;;;;16.25;54.28;98604.97;5417232;26;20003;-62
2024/04/15 01:39:43;;;;;;;3.63;2.92;;;;;;;16.30;54.04;98601.84;5417578;26;19999;-63
2024/04/15 01:42:10;;;;;;;7.55;3.13;;;;;;;16.30;53.84;98583.38;5417581;26;20011;-62
2024/04/15 01:44:37;;;;;;;4.15;3.08;;;;;;;16.33;53.55;98573.56;5417401;26;20445;-62
2024/04/15 01:47:03;;;;;;;4.18;2.92;;;;;;;16.36;53.67;98567.28;5417936;26;20007;-62
2024/04/15 01:49:31;;;;;;;4.45;3.17;;;;;;;16.37;53.17;98557.09;5417513;26;20049;-62
2024/04/15 01:51:57;;;;;;;4.47;3.05;;;;;;;16.32;53.28;98549.97;5417461;26;20000;-62
2024/04/15 01:54:24;;;;;;;4.00;3.03;;;;;;;16.25;53.41;98567.25;5417703;26;20013;-62
2024/04/15 01:56:50;;;;;;;5.90;2.88;;;;;;;16.25;53.18;98539.72;5415975;26;20010;-62
2024/04/15 01:59:17;;;;;;;3.83;2.67;;;;;;;16.18;53.93;98553.47;5417719;26;20007;-63
2024/04/15 02:01:45;;;;;;;5.13;3.15;;;;;;;16.22;53.26;98547.97;5415636;26;20333;-62
2024/04/15 02:04:11;;;;;;;4.53;3.00;;;;;;;16.27;53.18;98556.63;5436031;26;20466;-62
2024/04/15 02:06:38;;;;;;;3.83;2.67;;;;;;;16.25;53.29;98558.19;5438308;26;20010;-62
2024/04/15 02:09:05;;;;;;;4.05;3.03;;;;;;;16.17;53.57;98543.59;5451341;26;20015;-62
2024/04/15 02:11:32;;;;;;;5.18;2.53;;;;;;;16.14;53.99;98538.88;5453088;26;19999;-63
2024/04/15 02:13:58;;;;;;;4.40;2.75;;;;;;;16.16;53.89;98536.53;5449776;26;20003;-63
2024/04/15 02:16:25;;;;;;;5.32;2.65;;;;;;;16.22;53.99;98537.75;5453080;26;19995;-62
2024/04/15 02:18:52;;;;;;;3.95;3.00;;;;;;;16.22;54.00;98543.25;5452918;26;20035;-63
2024/04/15 02:21:19;;;;;;;4.35;2.75;;;;;;;16.17;54.39;98549.09;5452602;26;20006;-63
2024/04/15 02:23:45;;;;;;;5.90;3.20;;;;;;;16.13;54.04;98550.25;5452842;26;20006;-63
2024/04/15 02:26:12;;;;;;;5.65;3.00;;;;;;;16.11;54.07;98542.41;5452931;26;20720;-62
2024/04/15 02:28:38;;;;;;;4.45;2.80;;;;;;;16.10;54.72;98546.31;5452872;26;20071;-62
2024/04/15 02:31:05;;;;;;;5.38;3.20;;;;;;;16.08;54.18;98534.13;5452610;26;19995;-62
2024/04/15 02:33:32;;;;;;;4.05;2.55;;;;;;;16.04;54.62;98532.16;5453122;26;20076;-62
2024/04/15 02:35:59;;;;;;;4.40;3.30;;;;;;;16.08;54.52;98523.13;5438066;26;20037;-62
2024/04/15 02:38:26;;;;;;;4.32;2.85;;;;;;;16.04;54.51;98518.41;5452805;26;20355;-62
2024/04/15 02:40:54;;;;;;;6.18;2.92;;;;;;;16.00;54.55;98522.31;5452307;26;20064;-62
2024/04/15 02:43:21;;;;;;;6.72;3.10;;;;;;;15.93;54.89;98519.50;5452644;26;20011;-62
2024/04/15 02:45:48;;;;;;;6.65;3.00;;;;;;;15.85;55.38;98532.44;5452543;26;19994;-63
2024/04/15 02:48:16;;;;;;;5.38;3.00;;;;;;;15.75;55.00;98539.41;5452343;26;20071;-63
2024/04/15 02:50:43;;;;;;;4.47;2.53;;;;;;;15.66;55.67;98540.94;5452028;26;19994;-63
2024/04/15 02:53:09;;;;;;;7.22;3.58;;;;;;;15.55;55.81;98546.31;5452799;26;19999;-62
2024/04/15 02:55:36;;;;;;;5.57;3.00;;;;;;;15.51;56.03;98553.72;5452668;26;19999;-63
2024/04/15 02:58:03;;;;;;;5.28;3.20;;;;;;;15.47;56.44;98550.19;5452367;26;19999;-62
2024/04/15 03:00:32;;;;;;;4.93;2.80;;;;;;;15.44;56.14;98550.94;5452501;26;19999;-63
2024/04/15 03:02:59;;;;;;;5.47;3.05;;;;;;;15.41;56.22;98546.97;5452216;26;20003;-63
2024/04/15 03:05:25;;;;;;;7.07;3.30;;;;;;;15.48;56.02;98551.75;5443422;26;20018;-63
2024/04/15 03:07:52;;;;;;;6.70;3.40;;;;;;;15.54;55.68;98547.47;5444740;26;20003;-62
2024/04/15 03:10:19;;;;;;;3.58;2.92;;;;;;;15.60;55.88;98531.44;5451611;26;20467;-62
2024/04/15 03:12:51;;;;;;;5.60;3.10;;;;;;;15.68;55.53;98531.13;5452312;26;19999;-63
2024/04/15 03:15:18;;;;;;;5.78;3.78;;;;;;;15.70;55.17;98523.28;5450333;26;20032;-63
2024/04/15 03:17:48;;;;;;;6.45;3.55;;;;;;;15.71;54.58;98524.88;5450488;26;20072;-63
2024/04/15 03:20:15;;;;;;;4.60;3.20;;;;;;;15.75;54.69;98522.91;5451990;26;20014;-61
2024/04/15 03:22:48;;;;;;;7.20;4.00;;;;;;;15.78;54.49;98521.38;5451990;26;20010;-61
2024/04/15 03:25:20;;;;;;;5.65;4.10;;;;;;;15.77;54.76;98521.75;5449642;26;19994;-61
2024/04/15 03:27:48;;;;;;;9.55;3.90;;;;;;;15.78;54.82;98529.59;5451865;26;20333;-61
2024/04/15 03:30:15;;;;;;;5.25;3.20;;;;;;;15.80;54.67;98527.25;5451660;26;20013;-61
2024/04/15 03:32:42;;;;;;;8.23;3.67;;;;;;;15.79;54.62;98528.44;5450462;26;19995;-61
2024/04/15 03:35:14;;;;;;;4.82;3.67;;;;;;;15.77;54.32;98524.50;5446842;26;20085;-61
2024/04/15 03:37:41;;;;;;;5.20;3.58;;;;;;;15.68;54.32;98520.13;5443503;26;20003;-61
2024/04/15 03:40:10;;;;;;;6.68;3.30;;;;;;;15.62;54.54;98518.13;5451589;26;20079;-62
2024/04/15 03:42:37;;;;;;;6.88;3.83;;;;;;;15.56;54.80;98523.16;5451588;26;20006;-61
2024/04/15 03:45:05;;;;;;;3.85;3.15;;;;;;;15.55;55.01;98520.78;5451611;26;20075;-61
2024/04/15 03:47:32;;;;;;;4.90;3.60;;;;;;;15.55;55.18;98510.56;5451581;26;19994;-61
2024/04/15 03:49:59;;;;;;;5.45;3.67;;;;;;;15.52;54.96;98514.09;5451379;26;20031;-61
2024/04/15 03:52:25;;;;;;;6.10;3.78;;;;;;;15.44;55.67;98512.47;5449692;26;20408;-61
2024/04/15 03:54:52;;;;;;;4.60;4.00;;;;;;;15.40;55.75;98512.41;5451620;26;20002;-61
2024/04/15 03:57:19;;;;;;;6.35;3.92;;;;;;;15.41;55.77;98510.47;5451497;26;20031;-62
2024/04/15 03:59:46;;;;;;;9.90;3.92;;;;;;;15.42;55.61;98514.78;5449802;26;20011;-61
2024/04/15 04:02:12;;;;;;;7.45;4.10;;;;;;;15.45;55.90;98512.09;5450950;26;19999;-61
2024/04/15 04:04:40;;;;;;;5.38;4.15;;;;;;;15.48;55.83;98520.72;5451415;26;20002;-61
2024/04/15 04:07:07;;;;;;;6.10;3.83;;;;;;;15.42;55.74;98515.56;5430545;26;20076;-62
2024/04/15 04:09:37;;;;;;;5.20;3.30;;;;;;;15.39;55.97;98510.06;5415186;26;20014;-62
2024/04/15 04:12:04;;;;;;;5.78;4.00;;;;;;;15.40;56.17;98517.13;5413305;26;20509;-62
2024/04/15 04:14:31;;;;;;;3.67;3.25;;;;;;;15.39;56.07;98510.84;5415475;26;19995;-61
2024/04/15 04:16:58;;;;;;;8.85;3.55;;;;;;;15.29;56.10;98519.78;5413540;26;20007;-61
2024/04/15 04:19:25;;;;;;;8.48;4.07;;;;;;;15.25;56.66;98513.50;5415134;26;20010;-61
2024/04/15 04:21:52;;;;;;;4.68;3.35;;;;;;;15.27;56.39;98511.16;5414791;26;20014;-61
2024/04/15 04:24:19;;;;;;;9.10;3.45;;;;;;;15.27;56.57;98521.34;5414864;26;20076;-61
2024/04/15 04:26:46;;;;;;;4.90;3.28;;;;;;;15.28;56.78;98520.97;5413415;26;20000;-61
2024/04/15 04:29:12;;;;;;;5.40;3.30;;;;;;;15.25;56.50;98524.47;5414944;26;20014;-62
2024/04/15 04:31:39;;;;;;;10.25;3.83;;;;;;;15.28;56.44;98525.69;5412839;26;20006;-61
2024/04/15 04:34:06;;;;;;;6.45;4.28;;;;;;;15.29;56.50;98513.50;5431836;26;20035;-61
2024/04/15 04:36:33;;;;;;;8.27;5.65;;;;;;;15.30;56.61;98506.84;5436539;26;20384;-61
2024/04/15 04:39:00;;;;;;;4.30;3.40;;;;;;;15.15;56.65;98511.44;5454196;26;20070;-61
2024/04/15 04:41:26;;;;;;;6.00;4.28;;;;;;;15.07;57.45;98510.59;5454250;26;20025;-61
2024/04/15 04:43:53;;;;;;;9.73;5.90;;;;;;;15.09;57.35;98527.47;5454381;26;20034;-60
2024/04/15 04:46:20;;;;;;;6.85;4.53;;;;;;;15.21;57.28;98523.63;5454462;26;20006;-62
2024/04/15 04:48:47;;;;;;;13.00;7.50;;;;;;;15.30;57.09;98517.84;5453959;26;20013;-62
2024/04/15 04:51:13;;;;;;;10.13;5.47;;;;;;;15.24;56.98;98513.84;5454128;26;20060;-62
2024/04/15 04:53:41;;;;;;;15.18;8.77;;;;;;;15.15;57.04;98512.22;5454328;26;20002;-62
2024/04/15 04:56:11;;;;;;;7.57;3.75;;;;;;;15.23;56.90;98534.25;5452271;26;20344;-62
2024/04/15 04:58:38;;;;;;;9.32;4.00;;;;;;;15.28;56.82;98539.41;5452323;26;20035;-62
2024/04/15 05:01:15;;;;;;;7.60;3.97;;;;;;;15.30;56.32;98546.09;5453488;26;20003;-63
2024/04/15 05:03:47;;;;;;;6.18;3.95;;;;;;;15.33;56.76;98539.84;5454223;26;20031;-62
2024/04/15 05:06:16;;;;;;;8.25;4.32;;;;;;;15.32;56.44;98534.72;5439699;26;19999;-62
2024/04/15 05:08:44;;;;;;;8.20;4.18;;;;;;;15.26;56.65;98539.78;5453928;26;20455;-62
2024/04/15 05:11:10;;;;;;;9.98;4.78;;;;;;;15.21;56.98;98540.13;5453699;26;19995;-62
2024/04/15 05:13:37;;;;;;;6.75;3.75;;;;;;;15.17;57.10;98542.03;5454165;26;20075;-62
2024/04/15 05:16:06;;;;;;;6.70;4.18;;;;;;;15.09;56.96;98535.72;5453909;26;20360;-62
2024/04/15 05:18:34;;;;;;;9.20;4.40;;;;;;;15.02;57.59;98537.56;5454482;26;20467;-62
2024/04/15 05:21:01;;;;;;;7.60;4.30;;;;;;;14.93;57.73;98535.16;5453818;26;19995;-62
2024/04/15 05:23:29;;;;;;;6.80;4.40;;;;;;;14.90;58.18;98526.88;5454282;26;19999;-62
2024/04/15 05:25:58;;;;;;;12.70;4.68;;;;;;;14.87;57.98;98536.63;5454228;26;20006;-62
2024/04/15 05:28:25;;;;;;;10.25;5.25;;;;;;;14.85;58.07;98542.50;5453934;26;20018;-62
2024/04/15 05:30:54;;;;;;;13.43;6.40;;;;;;;14.89;58.02;98539.81;5453484;26;19991;-62
2024/04/15 05:33:21;;;;;;;9.05;4.75;;;;;;;14.91;58.17;98534.75;5453608;26;20075;-62
2024/04/15 05:35:48;;;;;;;10.20;5.28;;;;;;;14.89;57.98;98541.78;5439438;26;20004;-62
2024/04/15 05:38:15;;;;;;;7.07;5.20;;;;;;;14.87;58.73;98552.31;5453324;26;20006;-62
2024/04/15 05:40:42;;;;;;;9.38;5.00;;;;;;;14.83;58.26;98539.34;5453158;26;19994;-62
2024/04/15 05:43:10;;;;;;;7.57;5.50;;;;;;;14.81;58.04;98541.69;5453635;26;19999;-62
2024/04/15 05:45:37;;;;;;;10.10;5.00;;;;;;;14.78;58.24;98539.69;5453731;26;19999;-62
2024/04/15 05:48:04;;;;;;;9.40;5.28;;;;;;;14.83;58.55;98542.09;5451611;26;20003;-62
2024/04/15 05:50:31;;;;;;;7.30;4.75;;;;;;;14.88;58.27;98524.50;5452917;26;20002;-62
2024/04/15 05:52:58;;;;;;;10.60;5.38;;;;;;;14.88;58.09;98524.50;5451598;26;20694;-62
2024/04/15 05:55:24;;;;;;;8.93;4.90;;;;;;;14.84;58.29;98520.91;5453400;26;19994;-62
2024/04/15 05:57:51;;;;;;;10.10;5.32;;;;;;;14.89;58.34;98523.34;5453080;26;20400;-62
2024/04/15 06:00:19;;;;;;;9.52;4.97;;;;;;;14.94;58.27;98522.22;5452945;26;20581;-62
2024/04/15 06:02:46;;;;;;;8.80;5.40;;;;;;;14.93;58.65;98534.34;5453205;26;20013;-62
2024/04/15 06:05:14;;;;;;;9.30;5.22;;;;;;;14.94;58.49;98536.72;5446940;26;20027;-62
2024/04/15 06:07:41;;;;;;;10.82;7.05;;;;;;;14.93;58.58;98529.66;5444521;26;20079;-62
2024/04/15 06:10:09;;;;;;;8.63;5.38;;;;;;;14.97;58.57;98532.44;5452963;26;20023;-62
2024/04/15 06:12:36;;;;;;;12.13;5.70;;;;;;;14.99;58.23;98525.41;5452589;26;19999;-62
2024/04/15 06:15:03;;;;;;;7.50;4.90;;;;;;;15.03;58.11;98517.97;5452949;26;19999;-62
2024/04/15 06:17:30;;;;;;;9.48;5.28;;;;;;;15.03;58.17;98528.97;5452587;26;20014;-62
2024/04/15 06:19:57;;;;;;;12.32;5.40;;;;;;;14.99;58.19;98522.66;5453095;26;20040;-62
2024/04/15 06:22:24;;;;;;;8.18;4.72;;;;;;;15.05;58.18;98525.84;5452601;26;20010;-62
2024/04/15 06:24:50;;;;;;;9.32;5.32;;;;;;;15.04;58.14;98519.56;5452471;26;20005;-61
2024/04/15 06:27:18;;;;;;;10.52;5.13;;;;;;;14.92;58.20;98516.31;5452838;26;20002;-61
2024/04/15 06:29:45;;;;;;;8.00;4.78;;;;;;;14.90;58.18;98518.66;5452920;26;20005;-61
2024/04/15 06:32:12;;;;;;;9.55;4.70;;;;;;;14.87;57.17;98513.88;5452172;26;19998;-61
2024/04/15 06:34:39;;;;;;;10.82;5.18;;;;;;;14.80;57.68;98507.16;5450946;26;19999;-61
2024/04/15 06:37:06;;;;;;;6.78;4.40;;;;;;;14.75;57.10;98501.22;5437873;26;20006;-62
2024/04/15 06:39:34;;;;;;;9.88;5.22;;;;;;;14.76;57.68;98487.13;5452694;26;20472;-61
2024/04/15 06:42:01;;;;;;;8.30;4.25;;;;;;;14.87;57.13;98497.41;5452280;26;20006;-62
2024/04/15 06:44:27;;;;;;;8.20;4.43;;;;;;;14.92;56.76;98505.31;5452722;26;20082;-62
2024/04/15 06:46:55;;;;;;;9.55;3.92;;;;;;;15.02;56.17;98488.16;5452498;26;19994;-62
2024/04/15 06:49:21;;;;;;;9.20;3.85;;;;;;;15.05;56.00;98490.13;5452272;26;20657;-62
2024/04/15 06:51:48;;;;;;;8.85;4.00;;;;;;;15.07;55.38;98496.84;5452161;26;20002;-62
2024/04/15 06:54:15;;;;;;;10.00;4.05;;;;;;;15.14;55.20;98504.34;5452337;26;19995;-62
2024/04/15 06:56:42;;;;;;;8.65;3.90;;;;;;;15.15;55.42;98495.72;5452647;26;19995;-62
2024/04/15 06:59:08;;;;;;;8.23;3.85;;;;;;;15.19;55.62;98476.53;5451006;26;20003;-62
2024/04/15 07:01:35;;;;;;;7.70;3.95;;;;;;;15.35;55.34;98470.78;5452464;26;20455;-62
2024/04/15 07:04:06;;;;;;;6.18;3.17;;;;;;;15.41;54.24;98478.28;5452011;26;20006;-62
2024/04/15 07:06:34;;;;;;;5.13;2.85;;;;;;;15.28;53.94;98473.47;5437402;26;20003;-62
2024/04/15 07:09:00;;;;;;;6.72;2.47;;;;;;;15.27;53.28;98477.41;5451961;26;20071;-64
2024/04/15 07:11:27;;;;;;;8.70;3.08;;;;;;;15.30;53.45;98474.66;5451946;26;20006;-63
2024/04/15 07:13:54;;;;;;;7.30;2.70;;;;;;;15.45;52.83;98470.88;5452077;26;20048;-63
2024/04/15 07:16:21;;;;;;;5.95;3.00;;;;;;;15.48;52.05;98474.81;5451901;26;20009;-63
2024/04/15 07:18:48;;;;;;;6.85;2.50;;;;;;;15.37;51.34;98460.19;5452205;26;20351;-63
2024/04/15 07:21:15;;;;;;;5.40;2.58;;;;;;;15.22;51.61;98455.75;5451785;26;20467;-63
2024/04/15 07:23:45;;;;;;;8.38;3.03;;;;;;;15.10;51.57;98449.41;5452130;26;19995;-63
2024/04/15 07:26:12;;;;;;;5.43;2.20;;;;;;;14.94;50.63;98448.88;5449456;26;20106;-63
2024/04/15 07:28:39;;;;;;;5.20;2.03;;;;;;;14.95;50.64;98444.94;5450663;26;20039;-63
2024/04/15 07:31:06;;;;;;;6.05;1.70;;;;;;;15.10;50.48;98440.38;5450966;26;20003;-63
2024/04/15 07:33:33;;;;;;;5.07;1.45;;;;;;;15.09;49.56;98419.56;5448944;26;20010;-63
2024/04/15 07:36:00;;;;;;;3.35;2.15;;;;;;;15.02;49.36;98414.00;5434266;26;20015;-63
2024/04/15 07:38:27;;;;;;;4.75;1.80;;;;;;;15.17;49.31;98415.69;5450610;26;20019;-63
2024/04/15 07:40:58;;;;;;;7.05;2.00;;;;;;;15.23;49.09;98416.13;5450116;26;19999;-62
2024/04/15 07:43:26;;;;;;;5.85;1.85;;;;;;;15.26;48.57;98407.13;5450805;26;19995;-63
2024/04/15 07:45:53;;;;;;;2.58;1.40;;;;;;;15.41;47.63;98403.28;5451106;26;20356;-63
2024/04/15 07:48:19;;;;;;;11.25;1.55;;;;;;;15.56;47.23;98410.47;5449074;26;19999;-63
2024/04/15 07:50:46;;;;;;;3.72;1.50;;;;;;;15.69;46.80;98406.25;5448390;26;19995;-63
2024/04/15 07:53:13;;;;;;;4.82;1.50;;;;;;;15.77;46.27;98398.03;5450694;26;19999;-63
2024/04/15 07:55:44;;;;;;;4.50;1.55;;;;;;;15.90;46.06;98405.56;5450475;26;19995;-62
2024/04/15 07:58:10;;;;;;;6.07;1.48;;;;;;;16.03;45.81;98415.06;5451100;26;20002;-62
2024/04/15 08:00:37;;;;;;;2.83;1.48;;;;;;;16.19;45.32;98422.97;5449286;26;19999;-62
2024/04/15 08:03:05;;;;;;;4.03;2.28;;;;;;;16.38;44.86;98405.34;5451334;26;20007;-62
2024/04/15 08:05:31;;;;;;;4.88;2.30;;;;;;;16.62;43.70;98393.59;5439269;26;20471;-62
2024/04/15 08:07:58;;;;;;;6.22;1.88;;;;;;;16.92;42.29;98396.00;5447507;26;20009;-61
2024/04/15 08:10:25;;;;;;;4.40;1.73;;;;;;;16.97;41.81;98394.81;5453024;26;20007;-62
2024/04/15 08:12:52;;;;;;;7.30;2.05;;;;;;;16.98;42.74;98393.63;5457571;26;20015;-62
2024/04/15 08:15:19;;;;;;;4.32;1.63;;;;;;;16.92;41.96;98389.72;5458012;26;20452;-62
2024/04/15 08:17:46;;;;;;;3.67;1.73;;;;;;;16.85;42.02;98397.94;5455271;26;19999;-62
2024/04/15 08:20:13;;;;;;;4.53;1.33;;;;;;;16.77;42.12;98390.88;5463970;26;20018;-62
2024/04/15 08:22:40;;;;;;;3.83;2.10;;;;;;;16.74;42.52;98381.44;5468995;26;19995;-61
2024/04/15 08:25:08;;;;;;;4.93;1.55;;;;;;;16.80;41.79;98382.63;5471424;26;20027;-61
2024/04/15 08:27:37;;;;;;;5.60;1.67;;;;;;;16.78;41.68;98384.19;5472761;26;19995;-62
2024/04/15 08:30:04;;;;;;;5.70;1.63;;;;;;;16.79;41.76;98378.28;5473434;26;20044;-62
2024/04/15 08:32:31;;;;;;;4.00;1.50;;;;;;;16.86;41.20;98378.28;5472472;26;20002;-62
2024/04/15 08:34:58;;;;;;;6.93;1.42;;;;;;;16.90;41.35;98375.53;5463175;26;20075;-62
2024/04/15 08:37:25;;;;;;;3.40;1.83;;;;;;;16.82;41.72;98369.25;5433212;26;20406;-63
2024/04/15 08:39:52;;;;;;;4.40;1.73;;;;;;;16.78;41.74;98357.44;5421165;26;20453;-62
2024/04/15 08:42:27;;;;;;;3.70;1.63;;;;;;;16.84;41.45;98347.59;5420483;26;20007;-61
2024/04/15 08:44:55;;;;;;;4.07;1.80;;;;;;;16.90;41.55;98342.47;5424916;26;19995;-62
2024/04/15 08:47:28;;;;;;;3.70;1.80;;;;;;;16.93;41.75;98334.22;5425881;26;20000;-62
2024/04/15 08:49:56;;;;;;;5.20;1.42;;;;;;;17.03;41.94;98331.84;5425668;26;20023;-62
2024/04/15 08:52:23;;;;;;;5.13;1.70;;;;;;;16.93;42.12;98338.94;5425221;26;20022;-62
2024/04/15 08:54:50;;;;;;;4.28;1.60;;;;;;;16.93;41.53;98325.97;5423232;26;20071;-62
2024/04/15 08:57:17;;;;;;;4.60;1.52;;;;;;;16.83;41.81;98324.00;5391681;26;20342;-62
2024/04/15 08:59:45;;;;;;;4.80;1.80;;;;;;;16.75;41.90;98329.91;5423996;26;20002;-62
2024/04/15 09:02:15;;;;;;;5.07;1.77;;;;;;;16.71;42.23;98335.38;5424380;26;20000;-62
2024/04/15 09:04:43;;;;;;;3.63;1.40;;;;;;;16.61;42.05;98322.41;5448125;26;19999;-62
2024/04/15 09:07:10;;;;;;;5.35;1.83;;;;;;;16.53;42.19;98321.59;5443541;26;20042;-62
2024/04/15 09:09:37;;;;;;;5.43;1.33;;;;;;;16.55;42.74;98312.97;5459407;26;20003;-63
2024/04/15 09:12:04;;;;;;;4.32;1.67;;;;;;;16.75;42.36;98311.41;5467640;26;20455;-61
2024/04/15 09:14:30;;;;;;;4.13;1.67;;;;;;;16.77;42.02;98314.56;5462823;26;19995;-62
2024/04/15 09:17:01;;;;;;;3.08;1.40;;;;;;;16.73;41.81;98305.50;5454910;26;20018;-62
2024/04/15 09:19:29;;;;;;;4.60;1.92;;;;;;;16.64;41.96;98313.34;5454113;26;19998;-62
2024/04/15 09:22:00;;;;;;;7.38;1.80;;;;;;;16.82;42.06;98314.16;5453316;26;19999;-62
2024/04/15 09:24:27;;;;;;;5.32;1.90;;;;;;;17.10;41.38;98316.06;5454157;26;20002;-62
2024/04/15 09:26:55;;;;;;;9.52;2.25;;;;;;;17.34;40.45;98311.72;5453943;26;19999;-62
2024/04/15 09:29:22;;;;;;;6.97;1.80;;;;;;;17.53;40.47;98310.47;5453816;26;20006;-62
2024/04/15 09:31:49;;;;;;;8.93;1.98;;;;;;;17.71;39.35;98304.91;5453844;26;20002;-62
2024/04/15 09:34:16;;;;;;;5.68;2.33;;;;;;;17.70;39.87;98293.09;5454003;26;20002;-62
2024/04/15 09:36:56;;;;;;;3.22;1.50;;;;;;;17.69;39.43;98285.22;5438758;26;20328;-62
2024/04/15 09:39:24;;;;;;;4.82;1.88;;;;;;;17.95;39.51;98265.38;5453793;26;20003;-62
2024/04/15 09:41:53;;;;;;;4.15;2.28;;;;;;;18.28;38.93;98276.97;5453451;26;20038;-61
2024/04/15 09:44:20;;;;;;;4.43;2.17;;;;;;;18.26;38.34;98265.56;5451849;26;20006;-61
2024/04/15 09:46:48;;;;;;;7.95;2.05;;;;;;;18.12;38.82;98258.94;5453549;26;20009;-62
2024/04/15 09:49:18;;;;;;;4.95;1.60;;;;;;;18.26;37.84;98254.53;5453654;26;19998;-62
2024/04/15 09:51:46;;;;;;;8.27;1.70;;;;;;;18.51;37.97;98244.06;5453232;26;20003;-62
2024/04/15 09:54:16;;;;;;;1.90;1.25;;;;;;;18.76;37.22;98250.16;5453420;26;20447;-63
2024/04/15 09:56:47;;;;;;;3.80;1.30;;;;;;;19.06;37.34;98235.66;5453409;26;20002;-62
2024/04/15 09:59:15;;;;;;;4.40;1.48;;;;;;;19.14;37.18;98235.56;5453614;26;19999;-62
2024/04/15 10:01:43;;;;;;;4.03;1.17;;;;;;;19.27;36.44;98237.38;5452900;26;20011;-62
2024/04/15 10:04:21;;;;;;;7.30;1.70;;;;;;;19.14;36.83;98230.81;5453560;26;20413;-63
2024/04/15 10:06:53;;;;;;;6.60;1.60;;;;;;;19.19;35.14;98233.16;5424045;26;20011;-63
2024/04/15 10:09:20;;;;;;;4.63;1.48;;;;;;;18.92;36.27;98218.44;5417308;26;20003;-63
2024/04/15 10:11:48;;;;;;;5.35;1.92;;;;;;;18.75;36.25;98207.16;5416957;26;20000;-61
2024/04/15 10:14:18;;;;;;;6.38;1.50;;;;;;;18.73;36.72;98208.75;5417452;26;20033;-61
2024/04/15 10:16:47;;;;;;;6.90;1.48;;;;;;;18.60;35.94;98205.72;5417253;26;20350;-61
2024/04/15 10:19:46;;;;;;;4.63;1.73;;;;;;;18.60;37.30;98211.25;5417268;26;20004;-61
2024/04/15 10:22:15;;;;;;;5.22;1.25;;;;;;;18.64;36.62;98194.66;5423375;26;20013;-61
2024/04/15 10:24:43;;;;;;;3.40;1.40;;;;;;;18.80;36.38;98203.19;5417196;26;20015;-61
2024/04/15 10:27:10;;;;;;;2.67;1.42;;;;;;;18.69;36.14;98196.97;5417039;26;20333;-62
2024/04/15 10:29:38;;;;;;;5.25;1.50;;;;;;;18.65;36.56;98193.47;5416947;26;20011;-61
2024/04/15 10:32:08;;;;;;;7.45;1.55;;;;;;;18.69;37.13;98192.22;5414678;26;20007;-61
2024/04/15 10:34:40;;;;;;;4.20;1.40;;;;;;;18.77;36.96;98184.63;5439748;26;19999;-62
2024/04/15 10:37:15;;;;;;;3.72;1.38;;;;;;;18.68;37.34;98174.09;5436472;26;20045;-61
2024/04/15 10:39:48;;;;;;;4.13;1.70;;;;;;;18.64;37.39;98178.09;5453047;26;20340;-61
2024/04/15 10:42:15;;;;;;;6.97;1.67;;;;;;;18.58;37.51;98169.41;5452335;26;20455;-61
2024/04/15 10:44:41;;;;;;;4.43;1.40;;;;;;;18.70;37.22;98151.56;5453065;26;20006;-61
2024/04/15 10:47:08;;;;;;;3.95;1.30;;;;;;;18.69;37.25;98155.53;5453362;26;20361;-61
2024/04/15 10:49:35;;;;;;;3.80;1.33;;;;;;;18.64;36.30;98151.25;5452890;26;20014;-61
2024/04/15 10:52:02;;;;;;;8.20;2.38;;;;;;;18.66;37.05;98137.81;5452155;26;20037;-62
2024/04/15 10:54:31;;;;;;;5.18;1.60;;;;;;;18.80;37.48;98139.63;5451340;26;19998;-61
2024/04/15 10:56:58;;;;;;;5.38;1.98;;;;;;;18.96;36.65;98122.44;5455848;26;20067;-62
2024/04/15 10:59:25;;;;;;;9.57;1.58;;;;;;;19.05;36.32;98133.81;5455573;26;20353;-62
2024/04/15 11:01:52;;;;;;;5.80;1.73;;;;;;;19.05;36.41;98128.28;5455677;26;19994;-62
2024/04/15 11:04:20;;;;;;;3.40;1.30;;;;;;;19.12;35.76;98119.88;5457744;26;20004;-63
2024/04/15 11:06:47;;;;;;;5.45;1.40;;;;;;;19.03;35.65;98114.09;5453294;26;20002;-63
2024/04/15 11:09:14;;;;;;;3.53;1.50;;;;;;;19.18;35.27;98098.91;5453922;26;20010;-63
2024/04/15 11:11:41;;;;;;;3.17;1.33;;;;;;;19.17;35.12;98105.63;5454310;26;20467;-63
2024/04/15 11:14:14;;;;;;;3.60;1.15;;;;;;;19.07;35.35;98112.06;5452897;26;20010;-63
2024/04/15 11:16:45;;;;;;;3.35;1.50;;;;;;;19.19;34.61;98089.41;5452453;26;20067;-63
2024/04/15 11:19:12;;;;;;;6.05;1.35;;;;;;;19.30;34.10;98087.25;5452156;26;19995;-63
2024/04/15 11:21:39;;;;;;;6.90;1.30;;;;;;;19.32;34.60;98070.25;5451829;26;19995;-63
2024/04/15 11:24:08;;;;;;;4.63;1.30;;;;;;;19.57;34.66;98067.16;5452138;26;19994;-64
2024/04/15 11:26:38;;;;;;;4.45;1.40;;;;;;;19.68;34.19;98048.38;5450653;26;20003;-63
2024/04/15 11:29:06;;;;;;;4.47;1.33;;;;;;;19.73;33.76;98049.91;5452107;26;19995;-63
2024/04/15 11:31:34;;;;;;;5.03;1.17;;;;;;;19.86;33.80;98037.00;5452537;26;20001;-62
2024/04/15 11:34:03;;;;;;;3.75;1.48;;;;;;;19.72;33.84;98040.81;5440787;26;19995;-63
2024/04/15 11:36:30;;;;;;;4.93;1.30;;;;;;;19.49;34.34;98046.28;5442770;26;20004;-63